Time;durP1;ratioP1;P1;durP2;ratioP2;P2;SDS_P1;SDS_P2;PMS_P1;PMS_P2;Temp;Humidity;BMP_temperature;BMP_pressure;BME280_temperature;BME280_humidity;BME280_pressure;Samples;Min_cycle;Max_cycle;Signal;HPM_P1;HPM_P2
2023/04/27 00:01:31;;;;;;;8.98;8.07;;;;;;;;;;5070363;27;98214;-76
2023/04/27 00:03:58;;;;;;;9.45;7.97;;;;;;;;;;5070268;27;98762;-77
2023/04/27 00:06:26;;;;;;;8.02;6.72;;;;;;;;;;5060721;27;99123;-77
2023/04/27 00:08:52;;;;;;;10.55;7.88;;;;;;;;;;5073680;27;98174;-78
2023/04/27 00:11:19;;;;;;;11.10;8.20;;;;;;;;;;5068807;27;99074;-76
2023/04/27 00:13:45;;;;;;;12.35;8.18;;;;;;;;;;5068998;27;99238;-75
2023/04/27 00:16:11;;;;;;;15.52;8.50;;;;;;;;;;5070202;27;99433;-74
2023/04/27 00:18:38;;;;;;;15.43;8.13;;;;;;;;;;5068390;27;99667;-75
2023/04/27 00:21:04;;;;;;;16.35;8.35;;;;;;;;;;5068956;27;98363;-76
2023/04/27 00:23:31;;;;;;;11.35;8.48;;;;;;;;;;5069524;27;98772;-76
2023/04/27 00:25:57;;;;;;;10.85;7.97;;;;;;;;;;5062906;27;98916;-77
2023/04/27 00:28:24;;;;;;;12.10;8.82;;;;;;;;;;5066693;27;98280;-76
2023/04/27 00:30:53;;;;;;;9.25;8.23;;;;;;;;;;5074203;27;98927;-76
2023/04/27 00:33:19;;;;;;;9.55;8.48;;;;;;;;;;5069917;27;98323;-77
2023/04/27 00:35:46;;;;;;;11.13;8.07;;;;;;;;;;5070928;27;99348;-76
2023/04/27 00:38:12;;;;;;;12.27;8.30;;;;;;;;;;5070858;27;98763;-76
2023/04/27 00:40:39;;;;;;;11.63;8.88;;;;;;;;;;5069096;27;98177;-74
2023/04/27 00:43:07;;;;;;;11.57;9.20;;;;;;;;;;5067770;27;101732;-75
2023/04/27 00:45:41;;;;;;;10.20;8.80;;;;;;;;;;5069322;27;98548;-75
2023/04/27 00:48:08;;;;;;;12.10;9.10;;;;;;;;;;5055099;27;98400;-77
2023/04/27 00:50:34;;;;;;;10.65;8.77;;;;;;;;;;5065528;27;98335;-74
2023/04/27 00:53:01;;;;;;;10.30;9.00;;;;;;;;;;5062702;27;101645;-76
2023/04/27 00:55:27;;;;;;;10.75;8.93;;;;;;;;;;5053094;27;99954;-75
2023/04/27 00:57:53;;;;;;;12.73;9.02;;;;;;;;;;5066866;27;98836;-76
2023/04/27 01:00:21;;;;;;;19.30;8.88;;;;;;;;;;5068927;27;98966;-75
2023/04/27 01:02:48;;;;;;;14.38;8.43;;;;;;;;;;5067985;27;98581;-74
2023/04/27 01:05:16;;;;;;;15.95;9.82;;;;;;;;;;5067206;27;99154;-75
2023/04/27 01:07:45;;;;;;;13.93;9.80;;;;;;;;;;5067890;27;98293;-75
2023/04/27 01:10:11;;;;;;;12.80;8.88;;;;;;;;;;5062728;27;99170;-74
2023/04/27 01:12:37;;;;;;;12.63;9.75;;;;;;;;;;5061743;27;100278;-76
2023/04/27 01:15:05;;;;;;;20.88;10.40;;;;;;;;;;5072624;27;99485;-75
2023/04/27 01:17:31;;;;;;;15.05;10.10;;;;;;;;;;5067468;27;100075;-76
2023/04/27 01:19:58;;;;;;;16.33;10.63;;;;;;;;;;5068631;27;98258;-77
2023/04/27 01:22:25;;;;;;;13.35;10.48;;;;;;;;;;5067189;27;98594;-76
2023/04/27 01:24:52;;;;;;;14.05;11.82;;;;;;;;;;5066950;27;99989;-77
2023/04/27 01:27:18;;;;;;;14.55;11.40;;;;;;;;;;5067046;27;98205;-76
2023/04/27 01:29:45;;;;;;;14.82;11.38;;;;;;;;;;5067161;27;101167;-77
2023/04/27 01:32:11;;;;;;;13.52;11.40;;;;;;;;;;5067733;27;99408;-76
2023/04/27 01:34:38;;;;;;;16.92;10.52;;;;;;;;;;5067173;27;98250;-76
2023/04/27 01:37:04;;;;;;;15.30;11.10;;;;;;;;;;5070533;27;98672;-76
2023/04/27 01:39:30;;;;;;;21.80;11.38;;;;;;;;;;5067511;27;98507;-76
2023/04/27 01:41:57;;;;;;;16.05;13.07;;;;;;;;;;5069183;27;99562;-74
2023/04/27 01:44:24;;;;;;;18.80;10.75;;;;;;;;;;5068039;27;99852;-75
2023/04/27 01:46:50;;;;;;;17.40;11.65;;;;;;;;;;5067124;27;98487;-76
2023/04/27 01:49:17;;;;;;;16.90;11.25;;;;;;;;;;5068226;27;101483;-76
2023/04/27 01:51:43;;;;;;;17.55;12.02;;;;;;;;;;5067873;27;99339;-75
2023/04/27 01:54:09;;;;;;;16.10;11.68;;;;;;;;;;5068507;27;98247;-75
2023/04/27 01:56:36;;;;;;;18.17;11.95;;;;;;;;;;5066019;27;101228;-75
2023/04/27 01:59:02;;;;;;;15.18;11.65;;;;;;;;;;5069011;27;98346;-76
2023/04/27 02:01:30;;;;;;;17.05;12.18;;;;;;;;;;5066285;27;101386;-76
2023/04/27 02:03:56;;;;;;;13.50;12.05;;;;;;;;;;5066377;27;99214;-75
2023/04/27 02:06:23;;;;;;;18.92;12.68;;;;;;;;;;5066188;27;98747;-76
2023/04/27 02:08:50;;;;;;;14.75;12.55;;;;;;;;;;5068181;27;99560;-75
2023/04/27 02:11:16;;;;;;;19.05;12.02;;;;;;;;;;5067790;27;98862;-76
2023/04/27 02:13:43;;;;;;;21.02;12.45;;;;;;;;;;5066759;27;98564;-76
2023/04/27 02:16:09;;;;;;;27.80;11.95;;;;;;;;;;5068285;27;98669;-75
2023/04/27 02:18:39;;;;;;;15.02;11.55;;;;;;;;;;5069623;27;99443;-75
2023/04/27 02:21:08;;;;;;;15.65;10.93;;;;;;;;;;5066229;27;98312;-75
2023/04/27 02:23:35;;;;;;;18.98;11.70;;;;;;;;;;5066065;27;102707;-76
2023/04/27 02:26:02;;;;;;;15.60;12.23;;;;;;;;;;5067480;27;98468;-75
2023/04/27 02:28:28;;;;;;;21.70;13.73;;;;;;;;;;5067975;27;98217;-76
2023/04/27 02:30:55;;;;;;;17.38;13.00;;;;;;;;;;5065919;27;100951;-76
2023/04/27 02:33:21;;;;;;;17.30;12.82;;;;;;;;;;5065675;27;98549;-76
2023/04/27 02:35:49;;;;;;;15.18;12.02;;;;;;;;;;5067469;27;98559;-75
2023/04/27 02:38:15;;;;;;;15.68;12.18;;;;;;;;;;5066242;27;103402;-76
2023/04/27 02:40:42;;;;;;;15.45;12.15;;;;;;;;;;5070960;27;98397;-76
2023/04/27 02:43:08;;;;;;;20.40;11.32;;;;;;;;;;5066792;27;100090;-76
2023/04/27 02:45:37;;;;;;;17.30;11.50;;;;;;;;;;5065036;27;98682;-77
2023/04/27 02:48:04;;;;;;;14.27;12.00;;;;;;;;;;5066011;27;99255;-75
2023/04/27 02:50:32;;;;;;;18.80;12.02;;;;;;;;;;5067469;27;99876;-74
2023/04/27 02:52:59;;;;;;;22.00;12.55;;;;;;;;;;5065926;27;98433;-75
2023/04/27 02:55:26;;;;;;;19.15;13.35;;;;;;;;;;5065609;27;99479;-77
2023/04/27 02:57:53;;;;;;;15.20;11.93;;;;;;;;;;5066100;27;101570;-75
2023/04/27 03:00:19;;;;;;;16.00;12.32;;;;;;;;;;5066126;27;98122;-75
2023/04/27 03:02:45;;;;;;;20.60;12.98;;;;;;;;;;5070327;27;98693;-75
2023/04/27 03:05:12;;;;;;;18.45;13.35;;;;;;;;;;5067829;27;98569;-75
2023/04/27 03:07:38;;;;;;;17.83;12.77;;;;;;;;;;5067287;27;99516;-76
2023/04/27 03:10:04;;;;;;;15.07;11.18;;;;;;;;;;5065719;27;98907;-76
2023/04/27 03:12:31;;;;;;;21.42;11.90;;;;;;;;;;5065633;27;98390;-76
2023/04/27 03:14:58;;;;;;;15.98;11.73;;;;;;;;;;5066458;27;99536;-75
2023/04/27 03:17:25;;;;;;;16.85;11.80;;;;;;;;;;5064710;27;100298;-75
2023/04/27 03:19:51;;;;;;;16.30;11.20;;;;;;;;;;5059274;27;99091;-75
2023/04/27 03:22:17;;;;;;;14.32;10.93;;;;;;;;;;5066592;27;98556;-75
2023/04/27 03:24:44;;;;;;;13.43;10.57;;;;;;;;;;5069250;27;100183;-75
2023/04/27 03:27:10;;;;;;;23.88;11.32;;;;;;;;;;5067862;27;98899;-75
2023/04/27 03:29:37;;;;;;;12.23;10.70;;;;;;;;;;5064844;27;100191;-76
2023/04/27 03:32:03;;;;;;;16.30;9.55;;;;;;;;;;5067675;27;98358;-75
2023/04/27 03:34:30;;;;;;;18.17;10.20;;;;;;;;;;5069569;27;98701;-75
2023/04/27 03:36:57;;;;;;;12.18;10.48;;;;;;;;;;5065071;27;98743;-76
2023/04/27 03:39:23;;;;;;;13.98;9.82;;;;;;;;;;5067114;27;98163;-75
2023/04/27 03:41:49;;;;;;;11.35;10.10;;;;;;;;;;5069152;27;100073;-76
2023/04/27 03:44:16;;;;;;;14.98;10.65;;;;;;;;;;5068854;27;98897;-76
2023/04/27 03:46:43;;;;;;;18.60;11.27;;;;;;;;;;5072483;27;98243;-75
2023/04/27 03:49:10;;;;;;;14.70;10.20;;;;;;;;;;5069093;27;99337;-76
2023/04/27 03:51:41;;;;;;;15.63;11.18;;;;;;;;;;5068322;27;98302;-75
2023/04/27 03:54:08;;;;;;;17.75;11.82;;;;;;;;;;5071054;27;98315;-75
2023/04/27 03:56:35;;;;;;;14.40;10.63;;;;;;;;;;5068998;27;99409;-75
2023/04/27 03:59:03;;;;;;;20.25;11.20;;;;;;;;;;5066831;27;98816;-75
2023/04/27 04:01:32;;;;;;;19.60;11.15;;;;;;;;;;5069649;27;98345;-75
2023/04/27 04:03:59;;;;;;;15.32;11.65;;;;;;;;;;5068114;27;102179;-76
2023/04/27 04:06:26;;;;;;;13.82;10.25;;;;;;;;;;5071056;27;98298;-76
2023/04/27 04:08:54;;;;;;;14.57;10.48;;;;;;;;;;5068251;27;99123;-77
2023/04/27 04:11:21;;;;;;;12.93;10.70;;;;;;;;;;5069941;27;98337;-74
2023/04/27 04:13:50;;;;;;;18.85;10.57;;;;;;;;;;5067946;27;101000;-76
2023/04/27 04:16:16;;;;;;;16.70;9.75;;;;;;;;;;5069579;27;98691;-75
2023/04/27 04:18:42;;;;;;;18.73;9.85;;;;;;;;;;5069733;27;98247;-75
2023/04/27 04:21:10;;;;;;;13.98;9.93;;;;;;;;;;5070031;27;99563;-75
2023/04/27 04:23:36;;;;;;;14.00;10.45;;;;;;;;;;5067508;27;101278;-75
2023/04/27 04:26:03;;;;;;;16.77;10.07;;;;;;;;;;5069294;27;98640;-75
2023/04/27 04:28:33;;;;;;;12.85;10.40;;;;;;;;;;5071257;27;99075;-76
2023/04/27 04:30:59;;;;;;;14.27;10.13;;;;;;;;;;5068674;27;98329;-76
2023/04/27 04:33:26;;;;;;;11.20;9.35;;;;;;;;;;5068650;27;98363;-75
2023/04/27 04:35:53;;;;;;;16.35;10.35;;;;;;;;;;5068302;27;101641;-76
2023/04/27 04:38:20;;;;;;;15.68;9.10;;;;;;;;;;5068335;27;99486;-75
2023/04/27 04:40:46;;;;;;;17.63;9.10;;;;;;;;;;5069022;27;100921;-76
2023/04/27 04:43:13;;;;;;;23.17;9.60;;;;;;;;;;5067776;27;102283;-75
2023/04/27 04:45:40;;;;;;;18.48;9.50;;;;;;;;;;5067915;27;98403;-76
2023/04/27 04:48:07;;;;;;;19.52;9.65;;;;;;;;;;5066603;27;99382;-76
2023/04/27 04:50:34;;;;;;;19.90;10.10;;;;;;;;;;5070591;27;101024;-76
2023/04/27 04:53:01;;;;;;;16.83;9.90;;;;;;;;;;5067577;27;100525;-75
2023/04/27 04:55:27;;;;;;;10.38;8.85;;;;;;;;;;5067072;27;101745;-76
2023/04/27 04:57:54;;;;;;;12.55;8.90;;;;;;;;;;5067646;27;98396;-76
2023/04/27 05:00:21;;;;;;;23.30;10.13;;;;;;;;;;5066827;27;100798;-77
2023/04/27 05:02:47;;;;;;;12.50;9.48;;;;;;;;;;5067870;27;99272;-76
2023/04/27 05:05:14;;;;;;;10.35;8.85;;;;;;;;;;5069295;27;98347;-75
2023/04/27 05:07:41;;;;;;;12.25;8.80;;;;;;;;;;5069383;27;99428;-76
2023/04/27 05:10:07;;;;;;;11.88;8.98;;;;;;;;;;5066991;27;99673;-76
2023/04/27 05:12:34;;;;;;;18.67;9.07;;;;;;;;;;5064588;27;98289;-75
2023/04/27 05:15:00;;;;;;;12.02;8.73;;;;;;;;;;5067944;27;98938;-75
2023/04/27 05:17:27;;;;;;;13.43;9.40;;;;;;;;;;5068659;27;98925;-75
2023/04/27 05:19:53;;;;;;;12.30;8.95;;;;;;;;;;5069308;27;99544;-75
2023/04/27 05:22:19;;;;;;;19.83;14.48;;;;;;;;;;5067725;27;100457;-77
2023/04/27 05:24:46;;;;;;;21.60;17.08;;;;;;;;;;5068510;27;98311;-75
2023/04/27 05:27:13;;;;;;;19.42;11.48;;;;;;;;;;5068121;27;98804;-76
2023/04/27 05:29:40;;;;;;;16.70;10.15;;;;;;;;;;5067143;27;99068;-75
2023/04/27 05:32:06;;;;;;;16.33;8.10;;;;;;;;;;5068607;27;98383;-75
2023/04/27 05:34:32;;;;;;;14.25;8.27;;;;;;;;;;5071247;27;98525;-75
2023/04/27 05:36:59;;;;;;;12.93;8.55;;;;;;;;;;5067405;27;98476;-75
2023/04/27 05:39:25;;;;;;;12.63;8.30;;;;;;;;;;5067445;27;98436;-75
2023/04/27 05:41:52;;;;;;;11.73;7.88;;;;;;;;;;5068710;27;99916;-77
2023/04/27 05:44:19;;;;;;;8.57;6.82;;;;;;;;;;5067771;27;98267;-76
2023/04/27 05:46:45;;;;;;;11.88;7.20;;;;;;;;;;5068317;27;98548;-76
2023/04/27 05:49:11;;;;;;;10.70;7.68;;;;;;;;;;5068236;27;99124;-75
2023/04/27 05:51:38;;;;;;;14.68;6.50;;;;;;;;;;5067382;27;98531;-75
2023/04/27 05:54:06;;;;;;;7.28;6.60;;;;;;;;;;5068929;27;100172;-76
2023/04/27 05:56:33;;;;;;;10.43;7.35;;;;;;;;;;5069588;27;98905;-74
2023/04/27 05:58:59;;;;;;;7.70;7.03;;;;;;;;;;5067582;27;99884;-74
2023/04/27 06:01:28;;;;;;;8.40;6.47;;;;;;;;;;5066248;27;100241;-75
2023/04/27 06:03:54;;;;;;;7.55;6.45;;;;;;;;;;5062244;27;98303;-75
2023/04/27 06:06:21;;;;;;;13.27;6.88;;;;;;;;;;5064401;27;99407;-75
2023/04/27 06:08:47;;;;;;;7.43;6.65;;;;;;;;;;5066072;27;100100;-75
2023/04/27 06:11:14;;;;;;;11.68;6.82;;;;;;;;;;5066438;27;98236;-76
2023/04/27 06:13:40;;;;;;;9.45;6.72;;;;;;;;;;5068241;27;99518;-75
2023/04/27 06:16:06;;;;;;;10.18;6.32;;;;;;;;;;5071405;27;99967;-75
2023/04/27 06:18:33;;;;;;;9.60;5.97;;;;;;;;;;5067825;27;99586;-74
2023/04/27 06:21:00;;;;;;;15.43;6.65;;;;;;;;;;5067629;27;100192;-75
2023/04/27 06:23:27;;;;;;;15.65;6.13;;;;;;;;;;5068066;27;99410;-76
2023/04/27 06:25:54;;;;;;;6.82;5.93;;;;;;;;;;5066374;27;99464;-74
2023/04/27 06:28:20;;;;;;;9.15;5.88;;;;;;;;;;5067695;27;99908;-74
2023/04/27 06:30:46;;;;;;;6.80;6.13;;;;;;;;;;5067824;27;98265;-75
2023/04/27 06:33:13;;;;;;;11.77;7.05;;;;;;;;;;5059118;27;98748;-76
2023/04/27 06:35:40;;;;;;;9.20;6.25;;;;;;;;;;5066964;27;98983;-75
2023/04/27 06:38:06;;;;;;;11.10;7.28;;;;;;;;;;5070808;27;99592;-74
2023/04/27 06:40:34;;;;;;;7.70;6.50;;;;;;;;;;5067131;27;100086;-76
2023/04/27 06:43:00;;;;;;;8.77;5.40;;;;;;;;;;5067324;27;98525;-76
2023/04/27 06:45:26;;;;;;;6.95;6.22;;;;;;;;;;5068106;27;98330;-78
2023/04/27 06:47:53;;;;;;;8.77;6.30;;;;;;;;;;5065970;27;100426;-76
2023/04/27 06:50:19;;;;;;;6.80;6.13;;;;;;;;;;5064136;27;98386;-75
2023/04/27 06:52:46;;;;;;;11.50;6.03;;;;;;;;;;5064425;27;99573;-76
2023/04/27 06:55:12;;;;;;;9.32;7.53;;;;;;;;;;5066500;27;99148;-75
2023/04/27 06:57:39;;;;;;;9.02;5.15;;;;;;;;;;5064595;27;98709;-75
2023/04/27 07:00:05;;;;;;;8.57;5.40;;;;;;;;;;5070944;27;98475;-75
2023/04/27 07:02:32;;;;;;;11.13;5.88;;;;;;;;;;5063697;27;99321;-74
2023/04/27 07:04:59;;;;;;;9.18;5.57;;;;;;;;;;5065815;27;98597;-75
2023/04/27 07:07:25;;;;;;;8.50;4.82;;;;;;;;;;5058881;27;99913;-75
2023/04/27 07:09:52;;;;;;;12.57;4.85;;;;;;;;;;5065869;27;98288;-76
2023/04/27 07:12:18;;;;;;;10.38;6.47;;;;;;;;;;5070295;27;99401;-75
2023/04/27 07:14:45;;;;;;;12.75;5.22;;;;;;;;;;5068755;27;98969;-75
2023/04/27 07:17:11;;;;;;;7.47;5.00;;;;;;;;;;5068958;27;99156;-76
2023/04/27 07:19:37;;;;;;;9.30;4.72;;;;;;;;;;5059744;27;99445;-76
2023/04/27 07:22:04;;;;;;;10.15;4.80;;;;;;;;;;5063332;27;98985;-76
2023/04/27 07:24:30;;;;;;;10.60;4.95;;;;;;;;;;5063777;27;99492;-75
2023/04/27 07:26:56;;;;;;;8.90;4.82;;;;;;;;;;5070070;27;98980;-75
2023/04/27 07:29:25;;;;;;;8.45;4.22;;;;;;;;;;5061178;27;98199;-76
2023/04/27 07:31:54;;;;;;;8.63;4.43;;;;;;;;;;5063666;27;99398;-77
2023/04/27 07:34:21;;;;;;;6.43;4.10;;;;;;;;;;5054618;27;100132;-76
2023/04/27 07:36:47;;;;;;;7.57;4.10;;;;;;;;;;5068743;27;98854;-75
2023/04/27 07:39:14;;;;;;;6.28;3.70;;;;;;;;;;5065675;27;98839;-76
2023/04/27 07:41:41;;;;;;;5.53;3.60;;;;;;;;;;5070115;27;99964;-75
2023/04/27 07:44:08;;;;;;;8.27;3.58;;;;;;;;;;5071738;27;98322;-74
2023/04/27 07:46:34;;;;;;;4.50;3.47;;;;;;;;;;5065249;27;100396;-75
2023/04/27 07:49:01;;;;;;;5.65;3.45;;;;;;;;;;5070638;27;98314;-75
2023/04/27 07:51:27;;;;;;;9.40;3.80;;;;;;;;;;5067989;27;99386;-75
2023/04/27 07:53:54;;;;;;;5.55;3.03;;;;;;;;;;5062739;27;99859;-74
2023/04/27 07:56:20;;;;;;;5.63;3.63;;;;;;;;;;5066079;27;98422;-74
2023/04/27 07:58:47;;;;;;;4.05;2.90;;;;;;;;;;5069616;27;100181;-74
2023/04/27 08:01:13;;;;;;;4.53;2.85;;;;;;;;;;5069566;27;98955;-76
2023/04/27 08:03:40;;;;;;;9.65;3.38;;;;;;;;;;5065599;27;98439;-76
2023/04/27 08:06:07;;;;;;;6.75;3.13;;;;;;;;;;5073205;27;99813;-75
2023/04/27 08:08:34;;;;;;;3.83;3.00;;;;;;;;;;5068792;27;98240;-75
2023/04/27 08:11:00;;;;;;;4.07;2.80;;;;;;;;;;5064524;27;99132;-75
2023/04/27 08:13:27;;;;;;;4.43;3.30;;;;;;;;;;5068638;27;100159;-76
2023/04/27 08:15:57;;;;;;;5.32;2.90;;;;;;;;;;5069477;27;98448;-77
2023/04/27 08:18:24;;;;;;;6.38;3.38;;;;;;;;;;5068554;27;99378;-76
2023/04/27 08:20:51;;;;;;;4.07;2.90;;;;;;;;;;5068947;27;98945;-75
2023/04/27 08:23:17;;;;;;;7.18;3.08;;;;;;;;;;5067094;27;98358;-78
2023/04/27 08:25:43;;;;;;;7.13;2.72;;;;;;;;;;5072277;27;99385;-75
2023/04/27 08:28:10;;;;;;;4.13;2.38;;;;;;;;;;5067560;27;98583;-74
2023/04/27 08:30:36;;;;;;;9.50;3.17;;;;;;;;;;5068104;27;99632;-73
2023/04/27 08:33:03;;;;;;;3.10;2.58;;;;;;;;;;5068525;27;99005;-75
2023/04/27 08:35:29;;;;;;;10.48;2.90;;;;;;;;;;5068693;27;98753;-74
2023/04/27 08:37:56;;;;;;;5.30;2.83;;;;;;;;;;5068383;27;98769;-76
2023/04/27 08:40:23;;;;;;;5.45;3.13;;;;;;;;;;5064942;27;99367;-74
2023/04/27 08:42:57;;;;;;;3.58;2.60;;;;;;;;;;5068013;27;101280;-73
2023/04/27 08:45:24;;;;;;;9.68;2.30;;;;;;;;;;5068715;27;99677;-74
2023/04/27 08:47:50;;;;;;;4.13;2.72;;;;;;;;;;5071620;27;99134;-75
2023/04/27 08:50:17;;;;;;;7.18;2.50;;;;;;;;;;5069044;27;98689;-76
2023/04/27 08:52:44;;;;;;;8.20;2.90;;;;;;;;;;5068566;27;100088;-76
2023/04/27 08:55:11;;;;;;;2.13;1.92;;;;;;;;;;5067253;27;98309;-75
2023/04/27 08:57:40;;;;;;;3.63;2.60;;;;;;;;;;5067837;27;99318;-74
2023/04/27 09:00:13;;;;;;;4.47;2.55;;;;;;;;;;5067827;27;99254;-76
2023/04/27 09:02:46;;;;;;;4.03;2.50;;;;;;;;;;5068720;27;98229;-75
2023/04/27 09:05:17;;;;;;;6.20;2.92;;;;;;;;;;5068775;27;99478;-75
2023/04/27 09:07:56;;;;;;;4.78;2.83;;;;;;;;;;5061128;27;99779;-74
2023/04/27 09:10:23;;;;;;;7.20;2.83;;;;;;;;;;5071127;27;98140;-75
2023/04/27 09:12:56;;;;;;;6.85;2.47;;;;;;;;;;5068468;27;99919;-75
2023/04/27 09:15:22;;;;;;;5.53;3.20;;;;;;;;;;5067629;27;98268;-76
2023/04/27 09:17:53;;;;;;;3.40;2.70;;;;;;;;;;5068367;27;99538;-74
2023/04/27 09:20:20;;;;;;;4.03;2.70;;;;;;;;;;5068336;27;99979;-75
2023/04/27 09:22:47;;;;;;;4.32;2.47;;;;;;;;;;5068149;27;98425;-75
2023/04/27 09:25:30;;;;;;;7.72;2.42;;;;;;;;;;5068227;27;98471;-77
2023/04/27 09:27:57;;;;;;;2.60;2.40;;;;;;;;;;5060605;27;99965;-77
2023/04/27 09:30:24;;;;;;;2.85;2.55;;;;;;;;;;5069220;27;99426;-77
2023/04/27 09:32:55;;;;;;;3.65;2.50;;;;;;;;;;5071723;27;98524;-76
2023/04/27 09:35:23;;;;;;;4.20;3.17;;;;;;;;;;5067039;27;98330;-78
2023/04/27 09:37:53;;;;;;;6.22;2.80;;;;;;;;;;5069166;27;99268;-75
2023/04/27 09:40:25;;;;;;;4.45;3.00;;;;;;;;;;5068155;27;100450;-75
2023/04/27 09:42:51;;;;;;;2.92;2.72;;;;;;;;;;5058695;27;98207;-76
2023/04/27 09:45:21;;;;;;;3.78;2.65;;;;;;;;;;5063180;27;100110;-77
2023/04/27 09:47:47;;;;;;;8.48;2.75;;;;;;;;;;5060870;27;100403;-76
2023/04/27 09:50:14;;;;;;;6.22;2.75;;;;;;;;;;5067886;27;98606;-76
2023/04/27 09:52:41;;;;;;;3.95;2.60;;;;;;;;;;5068581;27;99968;-75
2023/04/27 09:55:12;;;;;;;2.92;2.70;;;;;;;;;;5072230;27;100069;-77
2023/04/27 09:57:57;;;;;;;5.47;2.90;;;;;;;;;;5067450;27;98676;-75
2023/04/27 10:00:24;;;;;;;4.65;2.95;;;;;;;;;;5064961;27;100369;-76
2023/04/27 10:03:02;;;;;;;6.10;3.20;;;;;;;;;;5065693;27;98800;-76
2023/04/27 10:05:35;;;;;;;2.55;2.35;;;;;;;;;;5063760;27;98566;-77
2023/04/27 10:08:02;;;;;;;6.47;3.20;;;;;;;;;;5067565;27;100992;-75
2023/04/27 10:10:28;;;;;;;3.75;2.83;;;;;;;;;;5067299;27;98499;-76
2023/04/27 10:13:01;;;;;;;4.90;2.53;;;;;;;;;;5068608;27;99414;-77
2023/04/27 10:15:28;;;;;;;3.95;3.60;;;;;;;;;;5066737;27;99833;-76
2023/04/27 10:17:57;;;;;;;4.95;3.17;;;;;;;;;;5069425;27;98420;-76
2023/04/27 10:20:29;;;;;;;2.90;2.70;;;;;;;;;;5065891;27;99021;-74
2023/04/27 10:22:55;;;;;;;7.60;3.60;;;;;;;;;;5068311;27;98301;-77
2023/04/27 10:25:22;;;;;;;5.80;3.30;;;;;;;;;;5067958;27;99647;-77
2023/04/27 10:27:55;;;;;;;6.68;4.03;;;;;;;;;;5067223;27;100114;-76
2023/04/27 10:30:22;;;;;;;9.10;3.20;;;;;;;;;;5067188;27;98158;-77
2023/04/27 10:32:50;;;;;;;4.68;3.53;;;;;;;;;;5064021;27;99656;-76
2023/04/27 10:35:16;;;;;;;5.22;3.63;;;;;;;;;;5067812;27;100005;-76
2023/04/27 10:37:43;;;;;;;5.82;3.47;;;;;;;;;;5072018;27;98267;-77
2023/04/27 10:40:13;;;;;;;8.32;3.25;;;;;;;;;;5067460;27;99989;-78
2023/04/27 10:42:41;;;;;;;6.38;2.65;;;;;;;;;;5069291;27;99480;-76
2023/04/27 10:45:07;;;;;;;7.18;3.53;;;;;;;;;;5071899;27;99952;-77
2023/04/27 10:47:38;;;;;;;5.18;3.30;;;;;;;;;;5069258;27;99343;-77
2023/04/27 10:50:05;;;;;;;7.38;3.40;;;;;;;;;;5070358;27;98275;-77
2023/04/27 10:52:32;;;;;;;6.68;3.08;;;;;;;;;;5070902;27;99478;-77
2023/04/27 10:55:03;;;;;;;3.45;3.15;;;;;;;;;;5071528;27;99200;-79
2023/04/27 10:57:29;;;;;;;8.07;2.95;;;;;;;;;;5062379;27;98890;-76
2023/04/27 10:59:56;;;;;;;3.08;2.88;;;;;;;;;;5073658;27;98726;-75
2023/04/27 11:02:27;;;;;;;3.35;3.05;;;;;;;;;;5070192;27;98398;-78
2023/04/27 11:04:55;;;;;;;7.03;3.53;;;;;;;;;;5066093;27;100137;-75
2023/04/27 11:07:25;;;;;;;4.22;3.22;;;;;;;;;;5067904;27;99967;-77
2023/04/27 11:09:52;;;;;;;4.45;3.70;;;;;;;;;;5070537;27;98240;-77
2023/04/27 11:12:18;;;;;;;4.97;3.22;;;;;;;;;;5070336;27;99073;-76
2023/04/27 11:14:45;;;;;;;4.45;3.50;;;;;;;;;;5069583;27;99316;-77
2023/04/27 11:17:12;;;;;;;7.05;3.78;;;;;;;;;;5070889;27;98686;-75
2023/04/27 11:19:45;;;;;;;5.40;3.20;;;;;;;;;;5071066;27;99403;-77
2023/04/27 11:22:12;;;;;;;3.70;3.35;;;;;;;;;;5072758;27;100542;-77
2023/04/27 11:24:45;;;;;;;3.65;3.35;;;;;;;;;;5070094;27;98804;-78
2023/04/27 11:27:12;;;;;;;5.40;4.47;;;;;;;;;;5071005;27;100002;-76
2023/04/27 11:29:38;;;;;;;4.80;3.28;;;;;;;;;;5062281;27;98422;-75
2023/04/27 11:32:04;;;;;;;3.80;3.45;;;;;;;;;;5071251;27;99776;-75
2023/04/27 11:34:35;;;;;;;3.55;3.25;;;;;;;;;;5070080;27;99078;-76
2023/04/27 11:37:03;;;;;;;4.43;3.45;;;;;;;;;;5070393;27;98362;-76
2023/04/27 11:39:35;;;;;;;6.50;3.30;;;;;;;;;;5071041;27;99454;-76
2023/04/27 11:42:15;;;;;;;5.05;3.67;;;;;;;;;;5069283;27;99022;-76
2023/04/27 11:44:41;;;;;;;8.05;4.05;;;;;;;;;;5073464;27;98099;-77
2023/04/27 11:47:14;;;;;;;3.95;3.55;;;;;;;;;;5055632;27;98580;-76
2023/04/27 11:49:47;;;;;;;4.78;4.00;;;;;;;;;;5069958;27;98428;-75
2023/04/27 11:52:14;;;;;;;3.80;3.50;;;;;;;;;;5070969;27;99798;-77
2023/04/27 11:54:52;;;;;;;5.97;4.03;;;;;;;;;;5069059;27;99246;-76
2023/04/27 11:57:28;;;;;;;7.28;3.90;;;;;;;;;;5069691;27;98492;-76
2023/04/27 11:59:55;;;;;;;4.05;3.63;;;;;;;;;;5070309;27;98599;-77
2023/04/27 12:02:22;;;;;;;4.25;3.25;;;;;;;;;;5069347;27;99098;-76
2023/04/27 12:04:49;;;;;;;4.88;4.22;;;;;;;;;;5069723;27;98609;-77
2023/04/27 12:07:16;;;;;;;5.50;3.80;;;;;;;;;;5071886;27;98612;-79
2023/04/27 12:09:43;;;;;;;4.93;3.53;;;;;;;;;;5068221;27;98309;-76
2023/04/27 12:12:11;;;;;;;4.95;3.88;;;;;;;;;;5068739;27;99735;-77
2023/04/27 12:14:37;;;;;;;5.82;3.63;;;;;;;;;;5069634;27;100421;-77
2023/04/27 12:17:03;;;;;;;3.95;3.55;;;;;;;;;;5069381;27;98249;-76
2023/04/27 12:19:30;;;;;;;8.40;3.70;;;;;;;;;;5069903;27;99790;-77
2023/04/27 12:21:58;;;;;;;5.25;3.75;;;;;;;;;;5069675;27;100132;-77
2023/04/27 12:24:24;;;;;;;5.70;4.15;;;;;;;;;;5069238;27;98423;-76
2023/04/27 12:26:51;;;;;;;9.00;4.28;;;;;;;;;;5069620;27;98926;-75
2023/04/27 12:29:17;;;;;;;9.23;4.53;;;;;;;;;;5073092;27;98334;-75
2023/04/27 12:31:44;;;;;;;4.40;3.97;;;;;;;;;;5069034;27;98855;-76
2023/04/27 12:34:10;;;;;;;5.53;4.15;;;;;;;;;;5069844;27;100210;-76
2023/04/27 12:36:37;;;;;;;8.98;4.18;;;;;;;;;;5069691;27;99291;-76
2023/04/27 12:39:17;;;;;;;4.25;3.78;;;;;;;;;;5069095;27;99508;-76
2023/04/27 12:41:45;;;;;;;4.15;3.65;;;;;;;;;;5069451;27;99904;-76
2023/04/27 12:44:12;;;;;;;6.25;4.55;;;;;;;;;;5068984;27;99651;-76
2023/04/27 12:46:40;;;;;;;5.97;4.38;;;;;;;;;;5068463;27;98727;-76
2023/04/27 12:49:07;;;;;;;7.00;4.45;;;;;;;;;;5072333;27;98981;-76
2023/04/27 12:51:34;;;;;;;4.57;4.18;;;;;;;;;;5069036;27;98650;-76
2023/04/27 12:54:01;;;;;;;5.72;4.25;;;;;;;;;;5068720;27;99011;-76
2023/04/27 12:56:28;;;;;;;5.88;3.72;;;;;;;;;;5069779;27;99712;-76
2023/04/27 12:58:54;;;;;;;6.00;4.25;;;;;;;;;;5070017;27;99480;-77
2023/04/27 13:01:23;;;;;;;5.88;3.90;;;;;;;;;;5059442;27;100321;-77
2023/04/27 13:03:51;;;;;;;7.30;4.10;;;;;;;;;;5069364;27;99192;-76
2023/04/27 13:06:18;;;;;;;4.95;4.45;;;;;;;;;;5067464;27;98672;-77
2023/04/27 13:08:44;;;;;;;4.68;4.28;;;;;;;;;;5069085;27;100161;-77
2023/04/27 13:11:12;;;;;;;4.35;4.00;;;;;;;;;;5073082;27;98839;-77
2023/04/27 13:13:38;;;;;;;6.63;4.13;;;;;;;;;;5068184;27;100054;-76
2023/04/27 13:16:05;;;;;;;5.32;4.18;;;;;;;;;;5068451;27;98243;-77
2023/04/27 13:18:31;;;;;;;4.93;4.45;;;;;;;;;;5069183;27;99712;-77
2023/04/27 13:21:01;;;;;;;5.80;4.43;;;;;;;;;;5068074;27;99019;-78
2023/04/27 13:23:27;;;;;;;10.48;4.47;;;;;;;;;;5068366;27;98182;-77
2023/04/27 13:25:54;;;;;;;5.20;3.80;;;;;;;;;;5068187;27;98600;-79
2023/04/27 13:28:20;;;;;;;4.43;4.07;;;;;;;;;;5067433;27;99235;-77
2023/04/27 13:30:47;;;;;;;9.48;3.90;;;;;;;;;;5068683;27;98481;-77
2023/04/27 13:33:14;;;;;;;4.38;3.97;;;;;;;;;;5072099;27;99659;-77
2023/04/27 13:35:49;;;;;;;4.22;3.83;;;;;;;;;;5061279;27;98372;-77
2023/04/27 13:38:16;;;;;;;5.85;4.70;;;;;;;;;;5068517;27;99260;-79
2023/04/27 13:40:42;;;;;;;5.70;4.85;;;;;;;;;;5068321;27;99971;-76
2023/04/27 13:43:09;;;;;;;4.05;3.70;;;;;;;;;;5067605;27;98244;-77
2023/04/27 13:45:35;;;;;;;5.32;3.83;;;;;;;;;;5068508;27;99563;-78
2023/04/27 13:48:01;;;;;;;3.65;3.35;;;;;;;;;;5064800;27;99856;-77
2023/04/27 13:50:28;;;;;;;5.18;3.10;;;;;;;;;;5066800;27;98235;-77
2023/04/27 13:52:54;;;;;;;4.65;3.42;;;;;;;;;;5068824;27;100184;-77
2023/04/27 13:55:21;;;;;;;5.93;3.03;;;;;;;;;;5070738;27;99932;-76
2023/04/27 13:57:47;;;;;;;6.07;3.05;;;;;;;;;;5068139;27;98706;-77
2023/04/27 14:00:14;;;;;;;4.43;3.22;;;;;;;;;;5068643;27;100127;-77
2023/04/27 14:02:40;;;;;;;9.23;4.03;;;;;;;;;;5066908;27;98905;-77
2023/04/27 14:05:07;;;;;;;6.15;3.33;;;;;;;;;;5068761;27;99659;-77
2023/04/27 14:07:34;;;;;;;4.78;3.10;;;;;;;;;;5067988;27;100084;-78
2023/04/27 14:10:04;;;;;;;3.80;3.20;;;;;;;;;;5066869;27;98591;-78
2023/04/27 14:12:31;;;;;;;3.13;2.92;;;;;;;;;;5063049;27;99046;-76
2023/04/27 14:14:57;;;;;;;5.07;2.95;;;;;;;;;;5067727;27;99185;-77
2023/04/27 14:17:24;;;;;;;6.43;3.30;;;;;;;;;;5069925;27;98369;-76
2023/04/27 14:19:50;;;;;;;6.20;3.50;;;;;;;;;;5067565;27;100128;-77
2023/04/27 14:22:17;;;;;;;3.22;3.03;;;;;;;;;;5065753;27;99288;-77
2023/04/27 14:24:43;;;;;;;3.63;2.95;;;;;;;;;;5063609;27;98965;-75
2023/04/27 14:27:09;;;;;;;7.63;3.33;;;;;;;;;;5064290;27;99965;-77
2023/04/27 14:29:36;;;;;;;4.03;3.28;;;;;;;;;;5066817;27;101073;-77
2023/04/27 14:32:03;;;;;;;4.47;2.85;;;;;;;;;;5066881;27;99105;-77